Photometre #847[NE_1.6_Dp] Glasgow_MO AOT

File : 20210607_847.hum

07/06/2021,04:57:35,TEMP=8.8,BA=5.68,STAT.A,ExtBa=12.10
07/06/2021,05:02:45,TEMP=8.7,BA=5.68,STAT.A,ExtBa=12.10
07/06/2021,05:08:43,TEMP=8.6,BA=5.68,STAT.A,ExtBa=12.10
07/06/2021,05:15:42,TEMP=8.5,BA=5.68,STAT.A,ExtBa=12.10
07/06/2021,05:24:01,TEMP=8.6,BA=5.68,STAT.A,ExtBa=12.10
07/06/2021,05:34:05,TEMP=8.8,BA=5.68,STAT.A,ExtBa=12.10
07/06/2021,05:40:24,TEMP=9.0,BA=5.68,STAT.D,ExtBa=12.00
07/06/2021,05:46:34,TEMP=9.3,BA=5.68,STAT.B,ExtBa=12.10
07/06/2021,05:52:26,TEMP=9.6,BA=5.68,STAT.A,ExtBa=12.10
07/06/2021,05:58:56,TEMP=9.9,BA=5.68,STAT.A,ExtBa=12.10
07/06/2021,06:06:11,TEMP=10.3,BA=5.64,STAT.A,ExtBa=12.10
07/06/2021,06:08:23,TEMP=10.7,BA=5.64,STAT.D,ExtBa=12.00
07/06/2021,06:12:24,TEMP=10.5,BA=5.60,STAT.D,ExtBa=12.00
07/06/2021,06:14:24,TEMP=10.9,BA=5.60,STAT.A,ExtBa=12.00
07/06/2021,06:23:34,TEMP=10.4,BA=5.68,STAT.C,ExtBa=12.10
07/06/2021,06:33:19,TEMP=11.7,BA=5.64,STAT.b=2.0
07/06/2021,06:34:26,TEMP=11.8,BA=5.64,STAT.A,ExtBa=11.90
07/06/2021,06:46:22,TEMP=12.3,BA=5.68,STAT.A,ExtBa=12.00
07/06/2021,06:52:24,TEMP=12.7,BA=5.68,STAT.D,ExtBa=12.00
07/06/2021,07:00:44,TEMP=13.2,BA=5.68,STAT.A,ExtBa=12.00
07/06/2021,07:04:24,TEMP=13.7,BA=5.68,STAT.D,ExtBa=12.00
07/06/2021,07:08:24,TEMP=14.0,BA=5.68,STAT.D,ExtBa=12.00
07/06/2021,07:12:24,TEMP=14.4,BA=5.64,STAT.D,ExtBa=12.00
07/06/2021,07:17:58,TEMP=14.5,BA=5.64,STAT.A,ExtBa=12.00
07/06/2021,07:20:24,TEMP=14.8,BA=5.68,STAT.D,ExtBa=12.00
07/06/2021,07:24:24,TEMP=14.7,BA=5.68,STAT.D,ExtBa=12.00
07/06/2021,07:28:24,TEMP=14.9,BA=5.68,STAT.D,ExtBa=12.00
07/06/2021,07:32:24,TEMP=15.1,BA=5.60,STAT.D,ExtBa=12.00
07/06/2021,07:36:24,TEMP=15.3,BA=5.60,STAT.D,ExtBa=12.00
07/06/2021,07:39:09,TEMP=15.6,BA=5.60,STAT.B,ExtBa=12.00
07/06/2021,07:48:34,TEMP=16.0,BA=5.60,STAT.b=2.0
07/06/2021,07:52:23,TEMP=15.7,BA=5.68,STAT.D,ExtBa=12.00
07/06/2021,07:56:24,TEMP=15.8,BA=5.68,STAT.D,ExtBa=12.00
07/06/2021,08:00:24,TEMP=15.9,BA=5.68,STAT.D,ExtBa=12.00
07/06/2021,08:04:24,TEMP=16.1,BA=5.68,STAT.D,ExtBa=12.00
07/06/2021,08:08:24,TEMP=16.1,BA=5.68,STAT.D,ExtBa=12.00
07/06/2021,08:12:24,TEMP=16.1,BA=5.60,STAT.D,ExtBa=12.00
07/06/2021,08:16:24,TEMP=16.3,BA=5.60,STAT.D,ExtBa=12.00
07/06/2021,08:20:24,TEMP=16.7,BA=5.68,STAT.D,ExtBa=12.00
07/06/2021,08:22:40,TEMP=17.2,BA=5.68,STAT.B,ExtBa=11.90
07/06/2021,08:32:34,TEMP=18.2,BA=5.56,STAT.b=2.0
07/06/2021,08:36:23,TEMP=17.9,BA=5.56,STAT.D,ExtBa=11.90
07/06/2021,08:40:24,TEMP=18.0,BA=5.64,STAT.D,ExtBa=11.90
07/06/2021,08:44:24,TEMP=18.1,BA=5.64,STAT.D,ExtBa=11.90
07/06/2021,08:47:14,TEMP=18.3,BA=5.64,STAT.D,ExtBa=11.90
07/06/2021,08:52:25,TEMP=18.2,BA=5.64,STAT.D,ExtBa=12.00
07/06/2021,08:56:25,TEMP=18.3,BA=5.64,STAT.D,ExtBa=12.00
07/06/2021,09:00:24,TEMP=18.4,BA=5.64,STAT.D,ExtBa=12.00
07/06/2021,09:02:25,TEMP=18.9,BA=5.64,STAT.D,ExtBa=11.90
07/06/2021,09:08:24,TEMP=18.7,BA=5.64,STAT.D,ExtBa=12.00
07/06/2021,09:12:24,TEMP=18.9,BA=5.56,STAT.D,ExtBa=12.00
07/06/2021,09:16:25,TEMP=19.1,BA=5.56,STAT.D,ExtBa=12.00
07/06/2021,09:18:27,TEMP=19.6,BA=5.56,STAT.F,ExtBa=11.90
07/06/2021,09:44:18,TEMP=21.3,BA=5.52,STAT.b=3.0
07/06/2021,09:44:53,TEMP=21.3,BA=5.52,STAT.b=3.0
07/06/2021,09:47:14,TEMP=20.9,BA=5.52,STAT.D,ExtBa=11.90
07/06/2021,09:53:37,TEMP=20.6,BA=5.52,STAT.D,ExtBa=11.90
07/06/2021,09:56:25,TEMP=20.8,BA=5.52,STAT.D,ExtBa=11.90
07/06/2021,10:00:25,TEMP=20.8,BA=5.60,STAT.D,ExtBa=11.90
07/06/2021,10:02:20,TEMP=21.2,BA=5.60,STAT.D,ExtBa=11.90
07/06/2021,10:08:25,TEMP=21.2,BA=5.60,STAT.D,ExtBa=11.90
07/06/2021,10:12:25,TEMP=21.3,BA=5.52,STAT.D,ExtBa=11.90
07/06/2021,10:16:25,TEMP=21.4,BA=5.52,STAT.D,ExtBa=11.90
07/06/2021,10:18:31,TEMP=21.9,BA=5.52,STAT.F,ExtBa=11.90
07/06/2021,10:36:21,TEMP=22.4,BA=5.52,STAT.D,ExtBa=11.80
07/06/2021,10:40:25,TEMP=22.0,BA=5.60,STAT.D,ExtBa=11.90
07/06/2021,10:44:25,TEMP=21.9,BA=5.60,STAT.D,ExtBa=11.90
07/06/2021,10:47:15,TEMP=22.2,BA=5.60,STAT.D,ExtBa=11.90
07/06/2021,10:52:25,TEMP=22.1,BA=5.60,STAT.D,ExtBa=11.90
07/06/2021,10:56:25,TEMP=22.2,BA=5.60,STAT.D,ExtBa=11.90
07/06/2021,11:00:25,TEMP=22.3,BA=5.60,STAT.D,ExtBa=11.90
07/06/2021,11:02:24,TEMP=22.7,BA=5.60,STAT.D,ExtBa=11.90
07/06/2021,11:08:25,TEMP=22.5,BA=5.60,STAT.D,ExtBa=11.90
07/06/2021,11:12:25,TEMP=22.7,BA=5.52,STAT.D,ExtBa=11.90
07/06/2021,11:16:25,TEMP=22.9,BA=5.52,STAT.D,ExtBa=11.90
07/06/2021,11:18:26,TEMP=23.3,BA=5.52,STAT.F,ExtBa=11.90
07/06/2021,11:35:35,TEMP=23.5,BA=5.48,STAT.D,ExtBa=11.80
07/06/2021,11:40:25,TEMP=23.2,BA=5.56,STAT.D,ExtBa=11.90
07/06/2021,11:44:25,TEMP=23.4,BA=5.56,STAT.D,ExtBa=11.90
07/06/2021,11:47:15,TEMP=23.7,BA=5.56,STAT.D,ExtBa=11.90
07/06/2021,11:52:25,TEMP=23.7,BA=5.56,STAT.D,ExtBa=11.90
07/06/2021,11:56:25,TEMP=24.2,BA=5.56,STAT.D,ExtBa=11.90
07/06/2021,12:00:25,TEMP=24.3,BA=5.56,STAT.D,ExtBa=11.90
07/06/2021,12:02:24,TEMP=24.5,BA=5.56,STAT.D,ExtBa=11.90
07/06/2021,12:08:25,TEMP=23.9,BA=5.56,STAT.D,ExtBa=11.90
07/06/2021,12:12:25,TEMP=23.8,BA=5.52,STAT.D,ExtBa=11.90
07/06/2021,12:16:25,TEMP=23.7,BA=5.52,STAT.D,ExtBa=11.90
07/06/2021,12:19:48,TEMP=24.2,BA=5.52,STAT.F,ExtBa=11.80
07/06/2021,12:37:34,TEMP=25.1,BA=5.48,STAT.D,ExtBa=11.80
07/06/2021,12:44:25,TEMP=24.5,BA=5.48,STAT.D,ExtBa=11.90
07/06/2021,12:47:15,TEMP=24.8,BA=5.48,STAT.D,ExtBa=11.90
07/06/2021,12:52:25,TEMP=24.4,BA=5.56,STAT.D,ExtBa=11.90
07/06/2021,12:56:25,TEMP=24.4,BA=5.56,STAT.D,ExtBa=11.90
07/06/2021,13:00:25,TEMP=24.6,BA=5.56,STAT.D,ExtBa=11.90
07/06/2021,13:02:25,TEMP=24.8,BA=5.56,STAT.D,ExtBa=11.90
07/06/2021,13:08:25,TEMP=23.9,BA=5.56,STAT.D,ExtBa=11.90
07/06/2021,13:12:25,TEMP=24.0,BA=5.48,STAT.D,ExtBa=11.90
07/06/2021,13:16:25,TEMP=24.6,BA=5.48,STAT.D,ExtBa=11.90
07/06/2021,13:18:27,TEMP=25.1,BA=5.48,STAT.F,ExtBa=11.90
07/06/2021,13:35:00,TEMP=25.4,BA=5.48,STAT.D,ExtBa=11.80
07/06/2021,13:40:25,TEMP=24.9,BA=5.56,STAT.D,ExtBa=11.90
07/06/2021,13:44:25,TEMP=24.9,BA=5.56,STAT.D,ExtBa=11.90
07/06/2021,13:47:15,TEMP=25.1,BA=5.56,STAT.D,ExtBa=11.90
07/06/2021,13:52:25,TEMP=25.0,BA=5.56,STAT.D,ExtBa=11.90
07/06/2021,13:56:25,TEMP=24.9,BA=5.56,STAT.D,ExtBa=11.90
07/06/2021,14:00:25,TEMP=24.9,BA=5.56,STAT.D,ExtBa=11.90
07/06/2021,14:02:28,TEMP=25.3,BA=5.56,STAT.D,ExtBa=11.90
07/06/2021,14:08:25,TEMP=25.3,BA=5.56,STAT.D,ExtBa=11.90
07/06/2021,14:12:25,TEMP=25.6,BA=5.48,STAT.D,ExtBa=11.90
07/06/2021,14:16:25,TEMP=25.9,BA=5.48,STAT.D,ExtBa=11.90
07/06/2021,14:18:26,TEMP=26.2,BA=5.48,STAT.F,ExtBa=11.90
07/06/2021,14:35:18,TEMP=25.8,BA=5.48,STAT.D,ExtBa=11.80
07/06/2021,14:40:25,TEMP=25.3,BA=5.52,STAT.D,ExtBa=11.90
07/06/2021,14:44:25,TEMP=25.1,BA=5.52,STAT.D,ExtBa=11.90
07/06/2021,14:47:15,TEMP=25.2,BA=5.52,STAT.D,ExtBa=11.90
07/06/2021,15:00:25,TEMP=24.6,BA=5.56,STAT.D,ExtBa=11.90
07/06/2021,15:02:19,TEMP=24.9,BA=5.56,STAT.D,ExtBa=11.90
07/06/2021,15:08:24,TEMP=24.3,BA=5.56,STAT.D,ExtBa=11.90
07/06/2021,15:12:25,TEMP=24.3,BA=5.48,STAT.D,ExtBa=11.90
07/06/2021,15:16:25,TEMP=24.4,BA=5.48,STAT.D,ExtBa=11.90
07/06/2021,15:18:27,TEMP=24.8,BA=5.48,STAT.F,ExtBa=11.90
07/06/2021,15:45:01,TEMP=24.2,BA=5.48,STAT.D,ExtBa=11.80
07/06/2021,15:48:27,TEMP=23.8,BA=5.48,STAT.D,ExtBa=11.90
07/06/2021,15:52:24,TEMP=23.6,BA=5.48,STAT.D,ExtBa=11.90
07/06/2021,15:56:24,TEMP=23.5,BA=5.48,STAT.D,ExtBa=11.90
07/06/2021,16:00:24,TEMP=23.5,BA=5.56,STAT.D,ExtBa=11.90
07/06/2021,16:02:26,TEMP=23.8,BA=5.56,STAT.D,ExtBa=11.90
07/06/2021,16:08:24,TEMP=23.3,BA=5.56,STAT.D,ExtBa=11.90
07/06/2021,16:11:52,TEMP=23.0,BA=5.48,STAT.B,ExtBa=11.90
07/06/2021,16:24:24,TEMP=21.8,BA=5.48,STAT.D,ExtBa=11.90
07/06/2021,16:28:24,TEMP=21.2,BA=5.48,STAT.D,ExtBa=11.90
07/06/2021,16:40:24,TEMP=19.8,BA=5.56,STAT.D,ExtBa=11.90
07/06/2021,16:44:24,TEMP=19.8,BA=5.56,STAT.D,ExtBa=11.90
07/06/2021,16:48:24,TEMP=20.0,BA=5.56,STAT.D,ExtBa=11.90
07/06/2021,16:52:24,TEMP=20.3,BA=5.48,STAT.D,ExtBa=11.90
07/06/2021,16:55:23,TEMP=20.5,BA=5.48,STAT.B,ExtBa=11.90
07/06/2021,17:08:24,TEMP=19.5,BA=5.48,STAT.D,ExtBa=11.90
07/06/2021,17:12:24,TEMP=19.4,BA=5.48,STAT.D,ExtBa=11.90
07/06/2021,17:16:24,TEMP=19.4,BA=5.48,STAT.D,ExtBa=11.90
07/06/2021,17:18:28,TEMP=19.8,BA=5.48,STAT.A,ExtBa=11.90
07/06/2021,17:24:24,TEMP=19.5,BA=5.48,STAT.D,ExtBa=11.90
07/06/2021,17:33:46,TEMP=19.4,BA=5.60,STAT.A,ExtBa=11.90
07/06/2021,17:36:24,TEMP=19.8,BA=5.60,STAT.D,ExtBa=11.90
07/06/2021,17:40:24,TEMP=20.0,BA=5.56,STAT.D,ExtBa=11.90
07/06/2021,17:44:24,TEMP=20.4,BA=5.56,STAT.D,ExtBa=11.90
07/06/2021,17:48:08,TEMP=20.7,BA=5.56,STAT.A,ExtBa=11.90
07/06/2021,17:54:40,TEMP=20.5,BA=5.48,STAT.D,ExtBa=11.90
07/06/2021,18:00:22,TEMP=20.5,BA=5.56,STAT.A,ExtBa=11.90
07/06/2021,18:04:24,TEMP=20.5,BA=5.56,STAT.D,ExtBa=11.90
07/06/2021,18:08:23,TEMP=20.5,BA=5.56,STAT.D,ExtBa=11.90
07/06/2021,18:10:56,TEMP=20.7,BA=5.48,STAT.C,ExtBa=11.90
07/06/2021,18:21:33,TEMP=20.3,BA=5.48,STAT.A,ExtBa=11.80
07/06/2021,18:28:19,TEMP=18.9,BA=5.48,STAT.A,ExtBa=11.90
07/06/2021,18:32:23,TEMP=18.6,BA=5.48,STAT.D,ExtBa=11.90
07/06/2021,18:35:34,TEMP=18.6,BA=5.48,STAT.A,ExtBa=11.90
07/06/2021,18:40:23,TEMP=18.4,BA=5.60,STAT.D,ExtBa=11.90
07/06/2021,18:42:31,TEMP=18.8,BA=5.60,STAT.A,ExtBa=11.90
07/06/2021,18:47:56,TEMP=18.0,BA=5.60,STAT.B,ExtBa=11.90
07/06/2021,19:00:24,TEMP=17.0,BA=5.60,STAT.D,ExtBa=11.90
07/06/2021,19:02:26,TEMP=17.4,BA=5.60,STAT.A,ExtBa=11.90
07/06/2021,19:08:24,TEMP=17.1,BA=5.60,STAT.D,ExtBa=11.90
07/06/2021,19:10:29,TEMP=17.6,BA=5.48,STAT.A,ExtBa=11.90
07/06/2021,19:16:24,TEMP=17.3,BA=5.48,STAT.D,ExtBa=11.90
07/06/2021,19:18:48,TEMP=17.5,BA=5.48,STAT.A,ExtBa=11.90
07/06/2021,19:24:24,TEMP=16.9,BA=5.48,STAT.D,ExtBa=11.90
07/06/2021,19:26:28,TEMP=17.2,BA=5.48,STAT.A,ExtBa=11.90
07/06/2021,19:31:45,TEMP=16.5,BA=5.60,STAT.A,ExtBa=11.90
07/06/2021,19:36:24,TEMP=16.2,BA=5.60,STAT.D,ExtBa=11.90
07/06/2021,19:38:29,TEMP=16.4,BA=5.60,STAT.A,ExtBa=11.90